Skip Navigation LinksHome page > Weather > Current weather Skip Navigation Links

Current Weather

Central Park, New York

For information only: do not use for flight planning or navigation.
Latest weather
Observation time Sunday, May 26, 2019 10:51 AM EDT
Local time Sunday, May 26, 2019 11:34 AM EDT
Flight conditions Visual Meteorological Conditions
Winds
Wind direction West (270°)
Winds variable from 220° to 310°
Wind speed 8 mph
Visibility 10 mi.
Sky condition
Ceiling unlimited
Sky clear
Temperature 77°F
Dewpoint 62°F
Altimeter 29.97 in.Hg
Pressure change last 3 hours0.00 in.Hg
Pressure rising, then falling
Derived measurements
Relative humidity 60%
Heat index 77°F
Density altitude 1521 ft.
Sea-level pressure 29.94 in.Hg
Remarks
Fully automated report.
System requires maintenance.
Automated weather observing station with precipitation discriminator.
METAR KNYC 261451Z AUTO 27007KT 220V310 10SM CLR 25/17 A2997 RMK AO2 SLP139 T02500167 50001 $

Settings

Location code

InnerDrive.Weather 4.0.6770.0 Release CLR 4.0.30319.42000
Copyright ©2018 Inner Drive Technology. All rights reserved. Portions Copyright ©1986-2018 David Braverman.

Find weather

Site navigation


Skip Navigation Links

Place info

Page info

PayPal - The safer, easier way to pay online!

Return home.

Copyright ©2019 Inner Drive Technology. Purveyors of fine, hand-crafted computer software. Page printed 2019-05-26T15:34:06 UTC.